Hovedside
METAR-TAF:

METAR-TAF

Lufthavner :

Kristiansund, Norge

Kristiansund lufthavn. Kvernberget

breddegrad: 63-07N, lengdegrad: 007-50E, høyde over havet: 6 m

Gjeldene værobservasjon

Denne rapporten ble laget for 39 minutter siden, klokken 07:50 UTC
Vind 5 kt fra skiftende retning
Temperatur -2°C
Luftfuktighet 59%
Trykk 1005 hPa
Sikt 10 km eller mer
ingen skyer under 1500 m og ingen bygeskyer

METAR: ENKB 220750Z VRB05KT CAVOK M02/M09 Q1005 RMK WIND 745FT 14017KT

Tid: 09:29 (08:29 UTC)

Varsel

Denne rapporten ble laget for 3 timer og 29 minutter siden, klokken 05:00 UTC
Varsel gyldig fra 22. klokken 06 UTC til 22. klokken 15 UTC
Vind 7 kt fra Øst-sørøst
Sikt 10 km eller mer
ingen skyer under 1500 m og ingen bygeskyer

TAF: ENKB 220500Z 2206/2215 12007KT CAVOK

Værobservasjoner og værvarsel for over 4000 flyplasser (METAR- og TAF-rapporter).

Tilgjengelige stasjoner er representert av de røde og gule prikkene på kartet.

Hold musepekeren over prikken for å se navnet på stasjonen.

Klikk så for å se værobservasjoner og -varsler.

For å forandre kartet kan du klikke på den grønne knappen med svart kryss for å zoome inn, på den grønne knappen med strek for å zoome ut, eller på de grønne pilene for å se tilstøtende kart.


METAR-TAF: